Terminal Aerodrome Forecast
Issued by NWS Amarillo, TX

Home | Current Version | Previous Version | Text Only | Print | Product List | Glossary On
Versions: 1 2 3 4 5 6 7 8 9 10 11 12 13 14 15 16 17 18 19 20 21 22 23 24 25 26 27
000
FTUS44 KAMA 252320
TAFAMA
TAF
KAMA 252320Z 2600/2624 14018KT P6SM VCSH SCT040
      TEMPO 2601/2605 VRB20G38KT 5SM -TSRA OVC020CB
     FM261200 16008KT P6SM -SHRA OVC015
     FM261500 16010KT P6SM OVC050=

USA.gov is the U.S. government's official web portal to all federal, state and local government web resources and services.